Details From KLAX - Los Angeles Intl
To KONT - Ontario Intl
Flight Number -
Tags Generated
Created
Modified
Stats Distance 41 nm / 75 km
Max Altitude 0 ft / 0 m
Waypoints 2
Social Downloads 4
Likes 0
Share VATSIM

Download

Looking for another format? Having issues loading an existing format? Contact us
Advertisement - Login to hide

Notes

Generated

Route

KLAX KONT

ID Type Via Altitude Latitude Longitude Leg Dist Tot Dist Heading (true) Name
O KLAX APT - 0 ft / 0 m 33.94914˚ -118.43120˚ - 0 nm - -
O KONT APT - 0 ft / 0 m 34.05688˚ -117.62282˚ 40 nm 40 nm 81° / 81° -

Altitude Profile

Advertisement - Login to hide

KLAX

Details ICAO KLAX (LAX)
Name Los Angeles Intl
Region United States
Timezone America/Los_Angeles (UTC-8.0)
Stats Elevation 126 ft / 38 m (AMSL)
Location 33.943130° -118.408917°
Runways 4
Magnetic Variation 12.006° E

METAR

KLAX 152153Z 27008KT 10SM FEW200 24/M03 A3004 RMK AO2 SLP171 T02441033

Decode

TAF

TAF AMD KLAX 152151Z 1522/1624 27009KT P6SM FEW200 FM160300 26004KT P6SM SKC FM160800 VRB03KT P6SM BKN250 FM161500 11005KT P6SM BKN250 FM162100 25007KT P6SM SCT250

Decode

Departure Runways

ID Width Length Bearing (true) Bearing (mag) Surface Threshold Offset Overrun Length
06L 151 ft / 46 m 8,907 ft / 2,715 m 82.98° 70.97° Concrete 0 ft / 0 m 0 ft / 0 m
06R 151 ft / 46 m 10,266 ft / 3,129 m 82.95° 70.94° Concrete 331 ft / 101 m 0 ft / 0 m
07L 151 ft / 46 m 12,069 ft / 3,679 m 82.96° 70.95° Concrete 0 ft / 0 m 0 ft / 0 m
07R 200 ft / 61 m 11,081 ft / 3,377 m 82.96° 70.95° Concrete 0 ft / 0 m 397 ft / 121 m
24L 151 ft / 46 m 10,266 ft / 3,129 m 262.97° 250.96° Concrete 0 ft / 0 m 174 ft / 53 m
24R 151 ft / 46 m 8,907 ft / 2,715 m 263.00° 250.99° Concrete 0 ft / 0 m 305 ft / 93 m
25L 200 ft / 61 m 11,081 ft / 3,377 m 262.98° 250.97° Concrete 0 ft / 0 m 1,053 ft / 321 m
25R 151 ft / 46 m 12,069 ft / 3,679 m 262.98° 250.97° Concrete 958 ft / 292 m 154 ft / 47 m

KONT

Details ICAO KONT (ONT)
Name Ontario Intl
Region United States
Timezone America/Los_Angeles (UTC-8.0)
Stats Elevation 944 ft / 288 m (AMSL)
Location 34.055917° -117.600853°
Runways 2
Magnetic Variation 11.862° E

METAR

KONT 152153Z VRB04KT 10SM FEW250 26/M16 A3004 RMK AO2 SLP160 T02611161

Decode

TAF

TAF KONT 151720Z 1518/1624 VRB06KT P6SM SKC= TAF KSNS 151720Z 1518/1618 12011KT P6SM SKC FM152200 28008KT P6SM FEW200 FM160100 27006KT P6SM BKN200 FM160600 26006KT P6SM SCT200 FM161100 27005KT P6SM FEW200

Decode

Destination Runways

ID Width Length Bearing (true) Bearing (mag) Surface Threshold Offset Overrun Length
08L 151 ft / 46 m 12,279 ft / 3,743 m 89.96° 78.10° Concrete 997 ft / 304 m 400 ft / 122 m
26L 151 ft / 46 m 10,269 ft / 3,130 m 269.97° 258.11° Concrete 0 ft / 0 m 400 ft / 122 m
26R 151 ft / 46 m 12,279 ft / 3,743 m 269.99° 258.13° Concrete 0 ft / 0 m 400 ft / 122 m
8R 151 ft / 46 m 10,269 ft / 3,130 m 89.95° 78.09° Concrete 0 ft / 0 m 400 ft / 122 m

Approach Navaids

Runway Type Ident Frequency Range Bearing (true) Bearing (mag) Slope Elevation
08L Localiser IAOD 109.70 MHz 18 nm / 33 km 89.99° 78.13° - 929 ft / 283 m (AMSL)
08L Glidescope IAOD 109.70 MHz 10 nm / 19 km 89.97° 78.11° 3.00° 937 ft / 286 m (AMSL)
26L Localiser ITWO 111.35 MHz 18 nm / 33 km 269.99° 258.12° - 931 ft / 284 m (AMSL)
26L Glidescope ITWO 111.35 MHz 10 nm / 19 km 269.96° 258.10° 3.00° 922 ft / 281 m (AMSL)
26L DME ITWO 111.35 MHz 18 nm / 33 km - - - 944 ft / 288 m (AMSL)
26R Localiser IONT 109.70 MHz 18 nm / 33 km 269.96° 258.10° - 944 ft / 288 m (AMSL)
26R Glidescope IONT 109.70 MHz 10 nm / 19 km 269.98° 258.11° 3.00° 929 ft / 283 m (AMSL)
26R DME IONT 109.70 MHz 18 nm / 33 km - - - 944 ft / 288 m (AMSL)

Popular Alternatives